sensor_id;sensor_type;location;lat;lon;timestamp;P1;durP1;ratioP1;P2;durP2;ratioP2
51901;SDS011;37929;53.218;6.548;2023-05-07T00:00:57;22.92;;;14.77;;
51901;SDS011;37929;53.218;6.548;2023-05-07T00:03:24;21.25;;;14.63;;
51901;SDS011;37929;53.218;6.548;2023-05-07T00:05:51;24.63;;;15.35;;
51901;SDS011;37929;53.218;6.548;2023-05-07T00:08:18;24.63;;;14.48;;
51901;SDS011;37929;53.218;6.548;2023-05-07T00:10:45;21.90;;;14.50;;
51901;SDS011;37929;53.218;6.548;2023-05-07T00:13:11;24.83;;;14.40;;
51901;SDS011;37929;53.218;6.548;2023-05-07T00:15:37;19.80;;;13.85;;
51901;SDS011;37929;53.218;6.548;2023-05-07T00:18:03;22.15;;;14.95;;
51901;SDS011;37929;53.218;6.548;2023-05-07T00:20:29;21.02;;;14.38;;
51901;SDS011;37929;53.218;6.548;2023-05-07T00:22:54;22.95;;;15.25;;
51901;SDS011;37929;53.218;6.548;2023-05-07T00:25:20;24.83;;;16.15;;
51901;SDS011;37929;53.218;6.548;2023-05-07T00:27:46;21.60;;;15.02;;
51901;SDS011;37929;53.218;6.548;2023-05-07T00:30:12;28.27;;;15.70;;
51901;SDS011;37929;53.218;6.548;2023-05-07T00:32:38;24.25;;;15.50;;
51901;SDS011;37929;53.218;6.548;2023-05-07T00:35:04;24.20;;;15.57;;
51901;SDS011;37929;53.218;6.548;2023-05-07T00:37:30;22.55;;;15.07;;
51901;SDS011;37929;53.218;6.548;2023-05-07T00:39:56;22.35;;;14.88;;
51901;SDS011;37929;53.218;6.548;2023-05-07T00:42:22;28.63;;;15.65;;
51901;SDS011;37929;53.218;6.548;2023-05-07T00:44:49;24.30;;;15.45;;
51901;SDS011;37929;53.218;6.548;2023-05-07T00:47:15;26.98;;;16.83;;
51901;SDS011;37929;53.218;6.548;2023-05-07T00:49:42;25.67;;;16.02;;
51901;SDS011;37929;53.218;6.548;2023-05-07T00:52:13;25.92;;;16.17;;
51901;SDS011;37929;53.218;6.548;2023-05-07T00:54:41;25.65;;;16.15;;
51901;SDS011;37929;53.218;6.548;2023-05-07T00:57:09;27.63;;;17.27;;
51901;SDS011;37929;53.218;6.548;2023-05-07T00:59:36;24.83;;;15.68;;
51901;SDS011;37929;53.218;6.548;2023-05-07T01:02:02;26.23;;;16.08;;
51901;SDS011;37929;53.218;6.548;2023-05-07T01:04:28;25.02;;;16.55;;
51901;SDS011;37929;53.218;6.548;2023-05-07T01:06:54;27.92;;;17.25;;
51901;SDS011;37929;53.218;6.548;2023-05-07T01:09:21;24.35;;;16.95;;
51901;SDS011;37929;53.218;6.548;2023-05-07T01:11:52;25.73;;;17.35;;
51901;SDS011;37929;53.218;6.548;2023-05-07T01:14:18;26.67;;;17.75;;
51901;SDS011;37929;53.218;6.548;2023-05-07T01:16:45;27.50;;;18.02;;
51901;SDS011;37929;53.218;6.548;2023-05-07T01:19:12;26.65;;;18.00;;
51901;SDS011;37929;53.218;6.548;2023-05-07T01:21:39;28.83;;;17.52;;
51901;SDS011;37929;53.218;6.548;2023-05-07T01:26:42;28.55;;;17.55;;
51901;SDS011;37929;53.218;6.548;2023-05-07T01:29:10;26.63;;;18.15;;
51901;SDS011;37929;53.218;6.548;2023-05-07T01:31:36;28.45;;;18.08;;
51901;SDS011;37929;53.218;6.548;2023-05-07T01:34:03;31.13;;;18.85;;
51901;SDS011;37929;53.218;6.548;2023-05-07T01:36:32;27.50;;;18.50;;
51901;SDS011;37929;53.218;6.548;2023-05-07T01:39:01;32.00;;;20.08;;
51901;SDS011;37929;53.218;6.548;2023-05-07T01:41:27;32.50;;;20.00;;
51901;SDS011;37929;53.218;6.548;2023-05-07T01:43:54;28.38;;;18.55;;
51901;SDS011;37929;53.218;6.548;2023-05-07T01:46:21;30.75;;;19.38;;
51901;SDS011;37929;53.218;6.548;2023-05-07T01:48:47;28.67;;;19.17;;
51901;SDS011;37929;53.218;6.548;2023-05-07T01:51:14;29.67;;;18.00;;
51901;SDS011;37929;53.218;6.548;2023-05-07T01:53:40;28.23;;;17.95;;
51901;SDS011;37929;53.218;6.548;2023-05-07T01:56:06;27.58;;;17.40;;
51901;SDS011;37929;53.218;6.548;2023-05-07T01:58:32;28.75;;;17.25;;
51901;SDS011;37929;53.218;6.548;2023-05-07T02:01:04;28.85;;;17.17;;
51901;SDS011;37929;53.218;6.548;2023-05-07T02:03:30;30.95;;;17.40;;
51901;SDS011;37929;53.218;6.548;2023-05-07T02:05:55;29.73;;;18.30;;
51901;SDS011;37929;53.218;6.548;2023-05-07T02:08:24;29.02;;;17.92;;
51901;SDS011;37929;53.218;6.548;2023-05-07T02:10:50;30.70;;;18.15;;
51901;SDS011;37929;53.218;6.548;2023-05-07T02:13:16;27.70;;;17.27;;
51901;SDS011;37929;53.218;6.548;2023-05-07T02:15:42;28.80;;;18.38;;
51901;SDS011;37929;53.218;6.548;2023-05-07T02:18:09;27.92;;;18.02;;
51901;SDS011;37929;53.218;6.548;2023-05-07T02:20:35;31.83;;;18.65;;
51901;SDS011;37929;53.218;6.548;2023-05-07T02:23:01;29.30;;;18.65;;
51901;SDS011;37929;53.218;6.548;2023-05-07T02:25:29;27.27;;;17.15;;
51901;SDS011;37929;53.218;6.548;2023-05-07T02:27:55;33.08;;;19.63;;
51901;SDS011;37929;53.218;6.548;2023-05-07T02:30:24;29.92;;;18.63;;
51901;SDS011;37929;53.218;6.548;2023-05-07T02:32:51;29.10;;;18.48;;
51901;SDS011;37929;53.218;6.548;2023-05-07T02:35:17;29.15;;;17.85;;
51901;SDS011;37929;53.218;6.548;2023-05-07T02:37:43;29.45;;;16.92;;
51901;SDS011;37929;53.218;6.548;2023-05-07T02:40:12;30.25;;;18.27;;
51901;SDS011;37929;53.218;6.548;2023-05-07T02:42:38;32.47;;;19.55;;
51901;SDS011;37929;53.218;6.548;2023-05-07T02:45:04;33.85;;;19.48;;
51901;SDS011;37929;53.218;6.548;2023-05-07T02:47:30;28.67;;;17.77;;
51901;SDS011;37929;53.218;6.548;2023-05-07T02:49:56;34.45;;;18.90;;
51901;SDS011;37929;53.218;6.548;2023-05-07T02:52:22;32.05;;;19.30;;
51901;SDS011;37929;53.218;6.548;2023-05-07T02:54:48;36.83;;;19.95;;
51901;SDS011;37929;53.218;6.548;2023-05-07T02:57:13;33.67;;;19.15;;
51901;SDS011;37929;53.218;6.548;2023-05-07T02:59:39;31.08;;;18.75;;
51901;SDS011;37929;53.218;6.548;2023-05-07T03:02:05;32.08;;;19.58;;
51901;SDS011;37929;53.218;6.548;2023-05-07T03:04:31;30.33;;;18.85;;
51901;SDS011;37929;53.218;6.548;2023-05-07T03:07:00;34.40;;;19.00;;
51901;SDS011;37929;53.218;6.548;2023-05-07T03:09:25;33.05;;;19.27;;
51901;SDS011;37929;53.218;6.548;2023-05-07T03:11:51;31.42;;;18.75;;
51901;SDS011;37929;53.218;6.548;2023-05-07T03:14:17;28.83;;;17.95;;
51901;SDS011;37929;53.218;6.548;2023-05-07T03:16:51;31.90;;;19.40;;
51901;SDS011;37929;53.218;6.548;2023-05-07T03:19:17;31.80;;;18.80;;
51901;SDS011;37929;53.218;6.548;2023-05-07T03:21:43;33.25;;;19.13;;
51901;SDS011;37929;53.218;6.548;2023-05-07T03:24:11;33.28;;;20.05;;
51901;SDS011;37929;53.218;6.548;2023-05-07T03:26:40;33.00;;;19.58;;
51901;SDS011;37929;53.218;6.548;2023-05-07T03:29:06;31.13;;;18.88;;
51901;SDS011;37929;53.218;6.548;2023-05-07T03:31:34;32.58;;;19.55;;
51901;SDS011;37929;53.218;6.548;2023-05-07T03:34:00;33.42;;;18.75;;
51901;SDS011;37929;53.218;6.548;2023-05-07T03:36:26;33.95;;;19.30;;
51901;SDS011;37929;53.218;6.548;2023-05-07T03:38:55;34.08;;;19.08;;
51901;SDS011;37929;53.218;6.548;2023-05-07T03:41:23;32.55;;;18.58;;
51901;SDS011;37929;53.218;6.548;2023-05-07T03:43:50;32.92;;;19.80;;
51901;SDS011;37929;53.218;6.548;2023-05-07T03:46:16;33.13;;;19.23;;
51901;SDS011;37929;53.218;6.548;2023-05-07T03:48:42;33.90;;;19.63;;
51901;SDS011;37929;53.218;6.548;2023-05-07T03:51:08;32.70;;;19.25;;
51901;SDS011;37929;53.218;6.548;2023-05-07T03:53:34;33.78;;;20.17;;
51901;SDS011;37929;53.218;6.548;2023-05-07T03:55:59;34.28;;;18.75;;
51901;SDS011;37929;53.218;6.548;2023-05-07T03:58:28;31.60;;;19.90;;
51901;SDS011;37929;53.218;6.548;2023-05-07T04:00:56;32.30;;;18.75;;
51901;SDS011;37929;53.218;6.548;2023-05-07T04:03:25;32.17;;;19.17;;
51901;SDS011;37929;53.218;6.548;2023-05-07T04:05:51;31.67;;;19.38;;
51901;SDS011;37929;53.218;6.548;2023-05-07T04:08:16;32.33;;;19.65;;
51901;SDS011;37929;53.218;6.548;2023-05-07T04:10:42;32.90;;;18.83;;
51901;SDS011;37929;53.218;6.548;2023-05-07T04:13:08;31.52;;;17.90;;
51901;SDS011;37929;53.218;6.548;2023-05-07T04:15:34;34.45;;;19.35;;
51901;SDS011;37929;53.218;6.548;2023-05-07T04:18:01;33.53;;;20.00;;
51901;SDS011;37929;53.218;6.548;2023-05-07T04:20:27;34.47;;;19.92;;
51901;SDS011;37929;53.218;6.548;2023-05-07T04:22:52;27.77;;;18.63;;
51901;SDS011;37929;53.218;6.548;2023-05-07T04:25:18;34.75;;;20.15;;
51901;SDS011;37929;53.218;6.548;2023-05-07T04:27:44;32.92;;;19.38;;
51901;SDS011;37929;53.218;6.548;2023-05-07T04:30:12;33.72;;;18.65;;
51901;SDS011;37929;53.218;6.548;2023-05-07T04:32:38;38.45;;;20.05;;
51901;SDS011;37929;53.218;6.548;2023-05-07T04:35:04;34.90;;;20.17;;
51901;SDS011;37929;53.218;6.548;2023-05-07T04:37:31;34.25;;;20.42;;
51901;SDS011;37929;53.218;6.548;2023-05-07T04:40:00;31.77;;;18.92;;
51901;SDS011;37929;53.218;6.548;2023-05-07T04:42:26;33.92;;;19.15;;
51901;SDS011;37929;53.218;6.548;2023-05-07T04:44:53;31.88;;;18.40;;
51901;SDS011;37929;53.218;6.548;2023-05-07T04:47:19;32.80;;;19.13;;
51901;SDS011;37929;53.218;6.548;2023-05-07T04:49:45;34.38;;;18.95;;
51901;SDS011;37929;53.218;6.548;2023-05-07T04:52:16;29.35;;;17.30;;
51901;SDS011;37929;53.218;6.548;2023-05-07T04:54:42;30.40;;;19.27;;
51901;SDS011;37929;53.218;6.548;2023-05-07T04:57:08;29.70;;;18.30;;
51901;SDS011;37929;53.218;6.548;2023-05-07T04:59:33;28.70;;;18.33;;
51901;SDS011;37929;53.218;6.548;2023-05-07T05:01:59;29.38;;;19.23;;
51901;SDS011;37929;53.218;6.548;2023-05-07T05:04:26;33.15;;;18.33;;
51901;SDS011;37929;53.218;6.548;2023-05-07T05:06:52;32.28;;;18.17;;
51901;SDS011;37929;53.218;6.548;2023-05-07T05:09:18;30.48;;;17.58;;
51901;SDS011;37929;53.218;6.548;2023-05-07T05:11:43;29.70;;;17.60;;
51901;SDS011;37929;53.218;6.548;2023-05-07T05:14:09;31.45;;;17.33;;
51901;SDS011;37929;53.218;6.548;2023-05-07T05:16:41;31.40;;;18.48;;
51901;SDS011;37929;53.218;6.548;2023-05-07T05:19:07;28.80;;;17.73;;
51901;SDS011;37929;53.218;6.548;2023-05-07T05:21:33;29.02;;;18.20;;
51901;SDS011;37929;53.218;6.548;2023-05-07T05:23:59;29.83;;;17.30;;
51901;SDS011;37929;53.218;6.548;2023-05-07T05:26:25;28.60;;;17.23;;
51901;SDS011;37929;53.218;6.548;2023-05-07T05:28:51;29.38;;;17.83;;
51901;SDS011;37929;53.218;6.548;2023-05-07T05:31:16;27.75;;;18.50;;
51901;SDS011;37929;53.218;6.548;2023-05-07T05:33:42;31.00;;;17.38;;
51901;SDS011;37929;53.218;6.548;2023-05-07T05:36:11;29.70;;;17.98;;
51901;SDS011;37929;53.218;6.548;2023-05-07T05:38:38;29.25;;;17.83;;
51901;SDS011;37929;53.218;6.548;2023-05-07T05:41:04;28.50;;;17.70;;
51901;SDS011;37929;53.218;6.548;2023-05-07T05:43:30;30.40;;;18.70;;
51901;SDS011;37929;53.218;6.548;2023-05-07T05:45:56;29.60;;;17.90;;
51901;SDS011;37929;53.218;6.548;2023-05-07T05:48:23;25.20;;;16.30;;
51901;SDS011;37929;53.218;6.548;2023-05-07T05:50:48;27.77;;;17.77;;
51901;SDS011;37929;53.218;6.548;2023-05-07T05:53:14;28.63;;;17.85;;
51901;SDS011;37929;53.218;6.548;2023-05-07T05:55:41;29.60;;;17.45;;
51901;SDS011;37929;53.218;6.548;2023-05-07T05:58:10;27.25;;;16.88;;
51901;SDS011;37929;53.218;6.548;2023-05-07T06:00:35;29.27;;;17.33;;
51901;SDS011;37929;53.218;6.548;2023-05-07T06:03:01;30.00;;;17.10;;
51901;SDS011;37929;53.218;6.548;2023-05-07T06:05:27;29.52;;;17.15;;
51901;SDS011;37929;53.218;6.548;2023-05-07T06:07:53;29.80;;;16.65;;
51901;SDS011;37929;53.218;6.548;2023-05-07T06:10:27;28.75;;;17.17;;
51901;SDS011;37929;53.218;6.548;2023-05-07T06:12:53;26.45;;;16.83;;
51901;SDS011;37929;53.218;6.548;2023-05-07T06:15:19;26.10;;;17.00;;
51901;SDS011;37929;53.218;6.548;2023-05-07T06:17:45;24.83;;;15.90;;
51901;SDS011;37929;53.218;6.548;2023-05-07T06:20:11;26.88;;;17.00;;
51901;SDS011;37929;53.218;6.548;2023-05-07T06:22:37;26.13;;;15.88;;
51901;SDS011;37929;53.218;6.548;2023-05-07T06:25:03;24.10;;;16.42;;
51901;SDS011;37929;53.218;6.548;2023-05-07T06:27:29;27.20;;;16.23;;
51901;SDS011;37929;53.218;6.548;2023-05-07T06:29:54;23.52;;;15.93;;
51901;SDS011;37929;53.218;6.548;2023-05-07T06:32:20;26.08;;;16.48;;
51901;SDS011;37929;53.218;6.548;2023-05-07T06:34:46;28.13;;;16.90;;
51901;SDS011;37929;53.218;6.548;2023-05-07T06:37:12;29.83;;;17.35;;
51901;SDS011;37929;53.218;6.548;2023-05-07T06:39:40;28.00;;;16.88;;
51901;SDS011;37929;53.218;6.548;2023-05-07T06:42:06;26.25;;;16.38;;
51901;SDS011;37929;53.218;6.548;2023-05-07T06:44:32;28.13;;;17.38;;
51901;SDS011;37929;53.218;6.548;2023-05-07T06:46:58;29.13;;;17.88;;
51901;SDS011;37929;53.218;6.548;2023-05-07T06:49:24;27.10;;;16.80;;
51901;SDS011;37929;53.218;6.548;2023-05-07T06:51:52;28.08;;;17.65;;
51901;SDS011;37929;53.218;6.548;2023-05-07T06:54:26;28.48;;;17.55;;
51901;SDS011;37929;53.218;6.548;2023-05-07T06:56:55;28.42;;;17.50;;
51901;SDS011;37929;53.218;6.548;2023-05-07T06:59:20;27.67;;;16.58;;
51901;SDS011;37929;53.218;6.548;2023-05-07T07:01:46;27.48;;;16.63;;
51901;SDS011;37929;53.218;6.548;2023-05-07T07:04:12;27.13;;;16.60;;
51901;SDS011;37929;53.218;6.548;2023-05-07T07:06:38;25.80;;;16.38;;
51901;SDS011;37929;53.218;6.548;2023-05-07T07:09:03;25.65;;;16.70;;
51901;SDS011;37929;53.218;6.548;2023-05-07T07:11:30;26.02;;;16.35;;
51901;SDS011;37929;53.218;6.548;2023-05-07T07:13:58;23.88;;;15.48;;
51901;SDS011;37929;53.218;6.548;2023-05-07T07:16:44;26.60;;;16.05;;
51901;SDS011;37929;53.218;6.548;2023-05-07T07:19:11;26.73;;;15.55;;
51901;SDS011;37929;53.218;6.548;2023-05-07T07:21:40;26.30;;;15.95;;
51901;SDS011;37929;53.218;6.548;2023-05-07T07:24:06;23.33;;;15.00;;
51901;SDS011;37929;53.218;6.548;2023-05-07T07:26:32;24.48;;;15.57;;
51901;SDS011;37929;53.218;6.548;2023-05-07T07:28:58;26.58;;;15.77;;
51901;SDS011;37929;53.218;6.548;2023-05-07T07:31:23;26.35;;;15.60;;
51901;SDS011;37929;53.218;6.548;2023-05-07T07:33:49;26.70;;;15.82;;
51901;SDS011;37929;53.218;6.548;2023-05-07T07:36:15;24.33;;;15.25;;
51901;SDS011;37929;53.218;6.548;2023-05-07T07:38:41;24.90;;;16.23;;
51901;SDS011;37929;53.218;6.548;2023-05-07T07:41:10;26.48;;;16.05;;
51901;SDS011;37929;53.218;6.548;2023-05-07T07:43:38;26.67;;;15.52;;
51901;SDS011;37929;53.218;6.548;2023-05-07T07:46:04;27.35;;;16.83;;
51901;SDS011;37929;53.218;6.548;2023-05-07T07:48:30;25.45;;;16.80;;
51901;SDS011;37929;53.218;6.548;2023-05-07T07:50:56;26.52;;;15.57;;
51901;SDS011;37929;53.218;6.548;2023-05-07T07:53:22;25.52;;;16.65;;
51901;SDS011;37929;53.218;6.548;2023-05-07T07:55:54;27.85;;;17.08;;
51901;SDS011;37929;53.218;6.548;2023-05-07T07:58:20;27.50;;;15.75;;
51901;SDS011;37929;53.218;6.548;2023-05-07T08:00:47;25.48;;;15.93;;
51901;SDS011;37929;53.218;6.548;2023-05-07T08:03:14;26.85;;;16.30;;
51901;SDS011;37929;53.218;6.548;2023-05-07T08:05:41;27.77;;;16.73;;
51901;SDS011;37929;53.218;6.548;2023-05-07T08:08:07;25.88;;;16.35;;
51901;SDS011;37929;53.218;6.548;2023-05-07T08:10:43;26.27;;;16.33;;
51901;SDS011;37929;53.218;6.548;2023-05-07T08:13:12;30.25;;;16.80;;
51901;SDS011;37929;53.218;6.548;2023-05-07T08:15:38;29.52;;;17.00;;
51901;SDS011;37929;53.218;6.548;2023-05-07T08:18:06;29.33;;;17.77;;
51901;SDS011;37929;53.218;6.548;2023-05-07T08:20:32;24.50;;;15.38;;
51901;SDS011;37929;53.218;6.548;2023-05-07T08:22:58;29.38;;;16.98;;
51901;SDS011;37929;53.218;6.548;2023-05-07T08:25:24;28.23;;;17.10;;
51901;SDS011;37929;53.218;6.548;2023-05-07T08:27:50;28.90;;;16.52;;
51901;SDS011;37929;53.218;6.548;2023-05-07T08:30:18;26.48;;;16.25;;
51901;SDS011;37929;53.218;6.548;2023-05-07T08:32:47;27.02;;;16.80;;
51901;SDS011;37929;53.218;6.548;2023-05-07T08:35:14;28.00;;;16.55;;
51901;SDS011;37929;53.218;6.548;2023-05-07T08:37:39;32.28;;;17.45;;
51901;SDS011;37929;53.218;6.548;2023-05-07T08:40:05;26.50;;;15.75;;
51901;SDS011;37929;53.218;6.548;2023-05-07T08:42:34;28.00;;;16.50;;
51901;SDS011;37929;53.218;6.548;2023-05-07T08:45:04;27.23;;;16.23;;
51901;SDS011;37929;53.218;6.548;2023-05-07T08:47:39;25.70;;;16.95;;
51901;SDS011;37929;53.218;6.548;2023-05-07T08:50:15;23.13;;;14.98;;
51901;SDS011;37929;53.218;6.548;2023-05-07T08:52:41;25.15;;;16.73;;
51901;SDS011;37929;53.218;6.548;2023-05-07T08:55:15;24.42;;;15.38;;
51901;SDS011;37929;53.218;6.548;2023-05-07T08:57:50;28.33;;;17.70;;
51901;SDS011;37929;53.218;6.548;2023-05-07T09:00:19;25.60;;;16.02;;
51901;SDS011;37929;53.218;6.548;2023-05-07T09:02:54;28.23;;;17.48;;
51901;SDS011;37929;53.218;6.548;2023-05-07T09:05:21;27.10;;;16.48;;
51901;SDS011;37929;53.218;6.548;2023-05-07T09:07:49;24.55;;;15.60;;
51901;SDS011;37929;53.218;6.548;2023-05-07T09:10:16;24.80;;;15.85;;
51901;SDS011;37929;53.218;6.548;2023-05-07T09:12:41;26.92;;;16.80;;
51901;SDS011;37929;53.218;6.548;2023-05-07T09:15:07;23.42;;;15.05;;
51901;SDS011;37929;53.218;6.548;2023-05-07T09:17:36;27.17;;;16.35;;
51901;SDS011;37929;53.218;6.548;2023-05-07T09:20:03;28.63;;;18.58;;
51901;SDS011;37929;53.218;6.548;2023-05-07T09:22:32;25.42;;;15.75;;
51901;SDS011;37929;53.218;6.548;2023-05-07T09:24:59;26.17;;;16.27;;
51901;SDS011;37929;53.218;6.548;2023-05-07T09:27:25;23.58;;;14.90;;
51901;SDS011;37929;53.218;6.548;2023-05-07T09:29:51;25.45;;;15.15;;
51901;SDS011;37929;53.218;6.548;2023-05-07T09:32:17;25.05;;;15.40;;
51901;SDS011;37929;53.218;6.548;2023-05-07T09:34:43;25.83;;;16.48;;
51901;SDS011;37929;53.218;6.548;2023-05-07T09:37:15;22.88;;;15.57;;
51901;SDS011;37929;53.218;6.548;2023-05-07T09:39:41;24.70;;;15.77;;
51901;SDS011;37929;53.218;6.548;2023-05-07T09:42:11;26.42;;;16.35;;
51901;SDS011;37929;53.218;6.548;2023-05-07T09:44:40;24.50;;;16.23;;
51901;SDS011;37929;53.218;6.548;2023-05-07T09:47:14;25.67;;;15.82;;
51901;SDS011;37929;53.218;6.548;2023-05-07T09:49:49;27.33;;;15.75;;
51901;SDS011;37929;53.218;6.548;2023-05-07T09:52:19;23.33;;;16.15;;
51901;SDS011;37929;53.218;6.548;2023-05-07T09:54:46;23.10;;;15.95;;
51901;SDS011;37929;53.218;6.548;2023-05-07T09:57:16;22.50;;;14.57;;
51901;SDS011;37929;53.218;6.548;2023-05-07T09:59:44;23.70;;;15.48;;
51901;SDS011;37929;53.218;6.548;2023-05-07T10:02:15;26.33;;;15.77;;
51901;SDS011;37929;53.218;6.548;2023-05-07T10:04:42;23.98;;;15.02;;
51901;SDS011;37929;53.218;6.548;2023-05-07T10:07:09;21.40;;;14.52;;
51901;SDS011;37929;53.218;6.548;2023-05-07T10:09:35;23.70;;;16.00;;
51901;SDS011;37929;53.218;6.548;2023-05-07T10:12:11;21.63;;;14.88;;
51901;SDS011;37929;53.218;6.548;2023-05-07T10:14:37;23.98;;;15.15;;
51901;SDS011;37929;53.218;6.548;2023-05-07T10:17:07;24.55;;;15.10;;
51901;SDS011;37929;53.218;6.548;2023-05-07T10:19:34;22.73;;;14.77;;
51901;SDS011;37929;53.218;6.548;2023-05-07T10:22:05;23.83;;;14.32;;
51901;SDS011;37929;53.218;6.548;2023-05-07T10:24:33;23.13;;;14.02;;
51901;SDS011;37929;53.218;6.548;2023-05-07T10:27:01;21.65;;;14.13;;
51901;SDS011;37929;53.218;6.548;2023-05-07T10:35:22;23.15;;;14.65;;
51901;SDS011;37929;53.218;6.548;2023-05-07T10:37:51;22.27;;;14.17;;
51901;SDS011;37929;53.218;6.548;2023-05-07T10:40:20;18.38;;;13.13;;
51901;SDS011;37929;53.218;6.548;2023-05-07T10:42:55;22.95;;;15.02;;
51901;SDS011;37929;53.218;6.548;2023-05-07T10:45:40;25.33;;;14.40;;
51901;SDS011;37929;53.218;6.548;2023-05-07T10:48:11;20.38;;;14.48;;
51901;SDS011;37929;53.218;6.548;2023-05-07T10:50:41;18.58;;;14.00;;
51901;SDS011;37929;53.218;6.548;2023-05-07T10:55:47;20.02;;;13.85;;
51901;SDS011;37929;53.218;6.548;2023-05-07T11:01:00;20.30;;;13.60;;
51901;SDS011;37929;53.218;6.548;2023-05-07T11:03:27;23.63;;;14.75;;
51901;SDS011;37929;53.218;6.548;2023-05-07T11:06:30;20.70;;;13.60;;
51901;SDS011;37929;53.218;6.548;2023-05-07T11:08:54;18.45;;;12.95;;
51901;SDS011;37929;53.218;6.548;2023-05-07T11:14:42;19.27;;;12.95;;
51901;SDS011;37929;53.218;6.548;2023-05-07T11:17:12;19.60;;;12.65;;
51901;SDS011;37929;53.218;6.548;2023-05-07T11:20:00;18.05;;;13.40;;
51901;SDS011;37929;53.218;6.548;2023-05-07T11:25:14;19.15;;;12.80;;
51901;SDS011;37929;53.218;6.548;2023-05-07T11:27:44;19.40;;;13.88;;
51901;SDS011;37929;53.218;6.548;2023-05-07T11:30:10;17.00;;;11.82;;
51901;SDS011;37929;53.218;6.548;2023-05-07T11:32:44;16.42;;;12.23;;
51901;SDS011;37929;53.218;6.548;2023-05-07T11:35:15;18.17;;;13.23;;
51901;SDS011;37929;53.218;6.548;2023-05-07T11:37:44;17.45;;;12.77;;
51901;SDS011;37929;53.218;6.548;2023-05-07T11:40:12;17.02;;;12.35;;
51901;SDS011;37929;53.218;6.548;2023-05-07T11:42:39;18.85;;;12.52;;
51901;SDS011;37929;53.218;6.548;2023-05-07T11:45:07;20.35;;;13.13;;
51901;SDS011;37929;53.218;6.548;2023-05-07T11:47:34;15.52;;;11.60;;
51901;SDS011;37929;53.218;6.548;2023-05-07T11:50:09;14.77;;;11.95;;
51901;SDS011;37929;53.218;6.548;2023-05-07T11:52:51;15.68;;;12.20;;
51901;SDS011;37929;53.218;6.548;2023-05-07T11:55:18;18.15;;;12.68;;
51901;SDS011;37929;53.218;6.548;2023-05-07T11:57:54;16.70;;;11.25;;
51901;SDS011;37929;53.218;6.548;2023-05-07T12:00:20;17.15;;;12.75;;
51901;SDS011;37929;53.218;6.548;2023-05-07T12:02:46;15.63;;;12.43;;
51901;SDS011;37929;53.218;6.548;2023-05-07T12:05:15;15.93;;;12.82;;
51901;SDS011;37929;53.218;6.548;2023-05-07T12:07:41;15.93;;;12.85;;
51901;SDS011;37929;53.218;6.548;2023-05-07T12:10:07;15.05;;;12.15;;
51901;SDS011;37929;53.218;6.548;2023-05-07T12:12:45;15.00;;;12.40;;
51901;SDS011;37929;53.218;6.548;2023-05-07T12:15:17;13.82;;;11.43;;
51901;SDS011;37929;53.218;6.548;2023-05-07T12:17:50;14.63;;;11.95;;
51901;SDS011;37929;53.218;6.548;2023-05-07T12:20:23;14.35;;;11.45;;
51901;SDS011;37929;53.218;6.548;2023-05-07T12:22:49;26.33;;;18.23;;
51901;SDS011;37929;53.218;6.548;2023-05-07T12:25:29;16.77;;;12.80;;
51901;SDS011;37929;53.218;6.548;2023-05-07T12:28:00;18.30;;;13.77;;
51901;SDS011;37929;53.218;6.548;2023-05-07T12:30:42;13.77;;;11.90;;
51901;SDS011;37929;53.218;6.548;2023-05-07T12:33:17;23.65;;;16.02;;
51901;SDS011;37929;53.218;6.548;2023-05-07T12:35:44;15.90;;;12.30;;
51901;SDS011;37929;53.218;6.548;2023-05-07T12:38:10;14.45;;;11.18;;
51901;SDS011;37929;53.218;6.548;2023-05-07T12:40:45;16.75;;;12.60;;
51901;SDS011;37929;53.218;6.548;2023-05-07T12:43:18;14.43;;;11.75;;
51901;SDS011;37929;53.218;6.548;2023-05-07T12:45:51;15.40;;;12.05;;
51901;SDS011;37929;53.218;6.548;2023-05-07T12:48:19;15.70;;;11.77;;
51901;SDS011;37929;53.218;6.548;2023-05-07T12:50:51;13.02;;;11.23;;
51901;SDS011;37929;53.218;6.548;2023-05-07T12:53:22;13.45;;;11.60;;
51901;SDS011;37929;53.218;6.548;2023-05-07T12:55:50;13.50;;;11.70;;
51901;SDS011;37929;53.218;6.548;2023-05-07T13:00:50;14.43;;;11.90;;
51901;SDS011;37929;53.218;6.548;2023-05-07T13:03:37;23.13;;;18.73;;
51901;SDS011;37929;53.218;6.548;2023-05-07T13:06:04;13.77;;;12.05;;
51901;SDS011;37929;53.218;6.548;2023-05-07T13:08:38;14.43;;;11.82;;
51901;SDS011;37929;53.218;6.548;2023-05-07T13:11:08;14.43;;;11.60;;
51901;SDS011;37929;53.218;6.548;2023-05-07T13:13:39;12.82;;;11.32;;
51901;SDS011;37929;53.218;6.548;2023-05-07T13:16:09;14.25;;;11.32;;
51901;SDS011;37929;53.218;6.548;2023-05-07T13:18:43;14.38;;;11.10;;
51901;SDS011;37929;53.218;6.548;2023-05-07T13:21:14;14.05;;;11.15;;
51901;SDS011;37929;53.218;6.548;2023-05-07T13:23:40;14.98;;;11.73;;
51901;SDS011;37929;53.218;6.548;2023-05-07T13:26:06;13.80;;;11.60;;
51901;SDS011;37929;53.218;6.548;2023-05-07T13:28:33;13.50;;;11.27;;
51901;SDS011;37929;53.218;6.548;2023-05-07T13:30:59;12.55;;;10.27;;
51901;SDS011;37929;53.218;6.548;2023-05-07T13:33:28;15.30;;;12.18;;
51901;SDS011;37929;53.218;6.548;2023-05-07T13:36:06;13.68;;;11.52;;
51901;SDS011;37929;53.218;6.548;2023-05-07T13:38:32;12.77;;;11.27;;
51901;SDS011;37929;53.218;6.548;2023-05-07T13:41:03;11.60;;;10.23;;
51901;SDS011;37929;53.218;6.548;2023-05-07T13:46:39;13.43;;;11.68;;
51901;SDS011;37929;53.218;6.548;2023-05-07T13:53:05;13.35;;;11.15;;
51901;SDS011;37929;53.218;6.548;2023-05-07T13:56:21;12.50;;;10.82;;
51901;SDS011;37929;53.218;6.548;2023-05-07T13:59:13;12.02;;;10.80;;
51901;SDS011;37929;53.218;6.548;2023-05-07T14:02:08;13.50;;;10.93;;
51901;SDS011;37929;53.218;6.548;2023-05-07T14:04:51;11.60;;;10.10;;
51901;SDS011;37929;53.218;6.548;2023-05-07T14:07:35;11.93;;;9.55;;
51901;SDS011;37929;53.218;6.548;2023-05-07T14:10:38;13.60;;;10.13;;
51901;SDS011;37929;53.218;6.548;2023-05-07T14:14:27;11.23;;;10.02;;
51901;SDS011;37929;53.218;6.548;2023-05-07T14:27:41;12.52;;;10.57;;
51901;SDS011;37929;53.218;6.548;2023-05-07T14:30:15;12.13;;;10.73;;
51901;SDS011;37929;53.218;6.548;2023-05-07T14:32:50;11.55;;;10.05;;
51901;SDS011;37929;53.218;6.548;2023-05-07T14:38:09;11.48;;;10.27;;
51901;SDS011;37929;53.218;6.548;2023-05-07T14:40:47;10.88;;;9.73;;
51901;SDS011;37929;53.218;6.548;2023-05-07T14:43:21;10.93;;;9.45;;
51901;SDS011;37929;53.218;6.548;2023-05-07T14:45:58;10.98;;;9.77;;
51901;SDS011;37929;53.218;6.548;2023-05-07T14:49:04;12.77;;;10.50;;
51901;SDS011;37929;53.218;6.548;2023-05-07T14:51:39;11.65;;;10.45;;
51901;SDS011;37929;53.218;6.548;2023-05-07T14:54:09;11.27;;;10.00;;
51901;SDS011;37929;53.218;6.548;2023-05-07T14:56:43;11.38;;;10.20;;
51901;SDS011;37929;53.218;6.548;2023-05-07T15:00:00;10.63;;;9.52;;
51901;SDS011;37929;53.218;6.548;2023-05-07T15:02:41;10.57;;;9.20;;
51901;SDS011;37929;53.218;6.548;2023-05-07T15:05:41;11.35;;;10.15;;
51901;SDS011;37929;53.218;6.548;2023-05-07T15:17:46;12.15;;;10.50;;
51901;SDS011;37929;53.218;6.548;2023-05-07T15:21:35;13.02;;;9.40;;
51901;SDS011;37929;53.218;6.548;2023-05-07T15:24:29;11.52;;;10.10;;
51901;SDS011;37929;53.218;6.548;2023-05-07T15:27:03;12.00;;;10.60;;